Ship Status Report: callsign BP3015

sailwx.info

Track history (hours):
 
Tides and Currents Weather Stations Pressure Air Temp Water Temp Dewpoint Dewpoint Depression Visibility Wind Speed Wind Dir Waves Ship Positions

Oceanographic research ship ()

Last reported at 2017-Sep-21 03:35 UTC. Time now 2017-Oct-19 16:33 UTC.
Position N 22°24' E 120°17'.
Warning: this ship's position is 28 days out of date.

Length 39 m; draft 2.8 m.

Type: Pleasure craft. MMSI: 416922000.

Date/timePositionNaut miles runAvg speedWind from/ knotsBaromVisibWave heightAir tempDewpointWater temp
2017-Sep-21 03:35N 22°24' E 120°17'110.9
2017-Sep-21 03:30N 22°24' E 120°17'510.7
2017-Sep-21 03:00N 22°29' E 120°14'510.3
2017-Sep-21 02:30N 22°34' E 120°12'4 8.9
2017-Sep-21 02:01N 22°38' E 120°12'4 7.9
2017-Sep-21 01:30N 22°37' E 120°16'1 1.2
2017-Sep-21 01:00N 22°37' E 120°17'0 0.0
2017-Sep-21 00:27N 22°37' E 120°17'0 0.0
2017-Sep-21 00:00N 22°37' E 120°17'0 0.0
2017-Sep-20 23:30N 22°37' E 120°17'0 0.0
2017-Sep-20 23:00N 22°37' E 120°17'0 0.0
2017-Sep-20 22:30N 22°37' E 120°17'0 0.0
2017-Sep-20 22:00N 22°37' E 120°17'0 0.0
2017-Sep-20 21:30N 22°37' E 120°17'0 0.0
2017-Sep-20 21:00N 22°37' E 120°17'0 0.0
2017-Sep-20 20:30N 22°37' E 120°17'0 0.0
2017-Sep-20 20:00N 22°37' E 120°17'0 0.0
2017-Sep-20 19:30N 22°37' E 120°17'0 0.0
2017-Sep-20 19:00N 22°37' E 120°17'0 0.0
2017-Sep-20 18:30N 22°37' E 120°17'0 0.0
2017-Sep-20 18:00N 22°37' E 120°17'0 0.0
2017-Sep-20 17:30N 22°37' E 120°17'0 0.0
2017-Sep-20 17:00N 22°37' E 120°17'0 0.0
2017-Sep-20 16:29N 22°37' E 120°17'0 0.0
2017-Sep-20 16:00N 22°37' E 120°17'0 0.0
2017-Sep-20 15:30N 22°37' E 120°17'0 0.0
2017-Sep-20 14:59N 22°37' E 120°17'0 0.0
2017-Sep-20 13:57N 22°37' E 120°17'0 0.0
2017-Sep-20 13:30N 22°37' E 120°17'0 0.0
2017-Sep-20 13:00N 22°37' E 120°17'0 0.0
2017-Sep-20 12:26N 22°37' E 120°17'0 0.0
2017-Sep-20 12:00N 22°37' E 120°17'0 0.0
2017-Sep-20 11:30N 22°37' E 120°17'0 0.0
2017-Sep-20 11:00N 22°37' E 120°17'0 0.0
2017-Sep-20 10:30N 22°37' E 120°17'0 0.0
2017-Sep-20 10:00N 22°37' E 120°17'0 0.0
2017-Sep-20 09:30N 22°37' E 120°17'0 0.0
2017-Sep-20 09:00N 22°37' E 120°17'0 0.0
2017-Sep-20 08:30N 22°37' E 120°17'0 0.0
2017-Sep-20 08:00N 22°37' E 120°17'0 0.0
2017-Sep-20 07:30N 22°37' E 120°17'0 0.0
2017-Sep-20 07:00N 22°37' E 120°17'0 0.0
2017-Sep-20 06:30N 22°37' E 120°17'0 0.0
2017-Sep-20 06:00N 22°37' E 120°17'0 0.0
2017-Sep-20 05:30N 22°37' E 120°17'0 0.0
2017-Sep-20 04:57N 22°37' E 120°17'0 0.0
2017-Sep-20 04:28N 22°37' E 120°17'0 0.0
2017-Sep-20 04:00N 22°37' E 120°17'2 4.2
2017-Sep-20 03:30N 22°37' E 120°15'5 9.6
2017-Sep-20 03:00N 22°39' E 120°10'510.8
2017-Sep-20 02:30N 22°44' E 120°07'74 9.5
2017-Sep-19 18:44N 23°46' E 119°24'311.4
2017-Sep-19 18:28N 23°49' E 119°25'511.4
2017-Sep-19 18:00N 23°54' E 119°27'4 8.1
2017-Sep-19 17:28N 23°58' E 119°29'3 6.3
2017-Sep-19 17:00N 24°01' E 119°29'2 4.8
2017-Sep-19 16:30N 23°59' E 119°28'2 3.4
2017-Sep-19 16:00N 23°57' E 119°28'3 5.6
2017-Sep-19 15:27N 24°00' E 119°28'1 2.1
2017-Sep-19 15:01N 23°59' E 119°28'1 1.2
2017-Sep-19 14:30N 23°59' E 119°28'2 4.2
2017-Sep-19 14:01N 24°01' E 119°27'1 1.2
2017-Sep-19 13:30N 24°01' E 119°27'2 3.8
2017-Sep-19 13:00N 23°59' E 119°26'2 4.2
2017-Sep-19 12:30N 23°57' E 119°25'2 4.4
2017-Sep-19 12:00N 23°59' E 119°24'3 5.7
2017-Sep-19 11:30N 24°02' E 119°23'0 0.2
2017-Sep-19 11:00N 24°02' E 119°24'2 3.4
2017-Sep-19 10:30N 24°00' E 119°24'3 5.7
2017-Sep-19 09:57N 24°03' E 119°24'3 6.2
2017-Sep-19 09:30N 24°00' E 119°24'1 1.1
2017-Sep-19 09:00N 24°00' E 119°24'3 6.1
2017-Sep-19 08:30N 24°03' E 119°24'2 4.1
2017-Sep-19 08:00N 24°01' E 119°25'3 5.2
2017-Sep-19 07:31N 23°59' E 119°25'3 5.3
2017-Sep-19 07:00N 24°01' E 119°25'1 1.8
2017-Sep-19 06:30N 24°02' E 119°25'1 1.2
2017-Sep-19 05:53N 24°03' E 119°25'2 5.1
2017-Sep-19 05:29N 24°01' E 119°26'2 3.3
2017-Sep-19 05:00N 23°59' E 119°26'3 5.3
2017-Sep-19 04:25N 24°03' E 119°26'2 3.9
2017-Sep-19 03:49N 24°00' E 119°26'2 5.1
2017-Sep-19 03:27N 23°58' E 119°26'2 4.6
2017-Sep-19 02:58N 24°01' E 119°26'2 5.1
2017-Sep-19 02:30N 24°03' E 119°25'3 3.7
2017-Sep-19 01:49N 24°05' E 119°26'3 2.2
2017-Sep-19 00:31N 24°08' E 119°26'2 3.8
2017-Sep-19 00:02N 24°06' E 119°27'2 0.4
2017-Sep-18 18:02N 24°06' E 119°29'0 4.2
2017-Sep-18 17:55N 24°06' E 119°29'2 3.0
2017-Sep-18 17:12N 24°04' E 119°27'1 4.2
2017-Sep-18 16:51N 24°04' E 119°25'2 4.1
2017-Sep-18 16:21N 24°04' E 119°23'1 3.8
2017-Sep-18 16:00N 24°03' E 119°23'2 3.7
2017-Sep-18 15:27N 24°03' E 119°25'2 4.3
2017-Sep-18 14:59N 24°03' E 119°27'2 3.2
2017-Sep-18 14:30N 24°02' E 119°29'6 3.5
2017-Sep-18 12:52N 23°60' E 119°23'1 3.5
2017-Sep-18 12:31N 23°59' E 119°24'2 4.6
2017-Sep-18 12:00N 23°59' E 119°27'2 4.0
2017-Sep-18 11:29N 23°59' E 119°29'2 3.5
2017-Sep-18 10:59N 23°57' E 119°28'2 4.6
2017-Sep-18 10:29N 23°57' E 119°25'2 3.7
2017-Sep-18 10:00N 23°57' E 119°23'0 1.0
2017-Sep-18 09:31N 23°57' E 119°23'0 0.4
2017-Sep-18 09:00N 23°56' E 119°24'2 4.4
2017-Sep-18 08:31N 23°59' E 119°23'0 0.3
2017-Sep-18 08:00N 23°59' E 119°24'2 4.2
2017-Sep-18 07:26N 23°56' E 119°24'1 1.2
2017-Sep-18 07:01N 23°57' E 119°24'2 3.6
2017-Sep-18 06:30N 23°59' E 119°24'3 5.5
2017-Sep-18 06:01N 24°01' E 119°23'0 0.2
2017-Sep-18 05:30N 24°01' E 119°24'3 5.7
2017-Sep-18 05:01N 23°59' E 119°24'8 0.2
2017-Sep-16 15:06N 24°06' E 119°25'1 5.8
2017-Sep-16 15:00N 24°07' E 119°25'3 5.8
2017-Sep-16 14:30N 24°10' E 119°25'3 5.5
2017-Sep-16 13:57N 24°07' E 119°25'2 5.6
2017-Sep-16 13:30N 24°04' E 119°25'3 5.7
2017-Sep-16 13:00N 24°01' E 119°25'3 5.8
2017-Sep-16 12:30N 23°59' E 119°26'2 4.5
2017-Sep-16 12:00N 23°56' E 119°26'1 2.6
2017-Sep-16 11:28N 23°58' E 119°26'3 5.6
2017-Sep-16 11:00N 24°00' E 119°26'4 5.8
2017-Sep-16 10:24N 24°04' E 119°25'2 5.8
2017-Sep-16 10:00N 24°06' E 119°25'3 5.6
2017-Sep-16 09:30N 24°09' E 119°25'1 1.2
2017-Sep-16 08:50N 24°08' E 119°25'2 5.8
2017-Sep-16 08:30N 24°06' E 119°25'3 5.8
2017-Sep-16 07:59N 24°03' E 119°26'3 5.8
2017-Sep-16 07:30N 24°01' E 119°26'9 2.3
2017-Sep-16 03:52N 24°09' E 119°25'  
Track history (hours):
 
Tides and Currents Weather Stations Pressure Air Temp Water Temp Dewpoint Dewpoint Depression Visibility Wind Speed Wind Dir Waves Ship Positions

Oceanographic research ship ()

Last reported at 2017-Sep-21 03:35 UTC. Time now 2017-Oct-19 16:33 UTC.
Position N 22°24' E 120°17'.
Warning: this ship's position is 28 days out of date.

Length 39 m; draft 2.8 m.

Type: Pleasure craft. MMSI: 416922000.

Date/timePositionNaut miles runAvg speedWind from/ knotsBaromVisibWave heightAir tempDewpointWater temp
2017-Sep-21 03:35N 22°24' E 120°17'110.9
2017-Sep-21 03:30N 22°24' E 120°17'510.7
2017-Sep-21 03:00N 22°29' E 120°14'510.3
2017-Sep-21 02:30N 22°34' E 120°12'4 8.9
2017-Sep-21 02:01N 22°38' E 120°12'4 7.9
2017-Sep-21 01:30N 22°37' E 120°16'1 1.2
2017-Sep-21 01:00N 22°37' E 120°17'0 0.0
2017-Sep-21 00:27N 22°37' E 120°17'0 0.0
2017-Sep-21 00:00N 22°37' E 120°17'0 0.0
2017-Sep-20 23:30N 22°37' E 120°17'0 0.0
2017-Sep-20 23:00N 22°37' E 120°17'0 0.0
2017-Sep-20 22:30N 22°37' E 120°17'0 0.0
2017-Sep-20 22:00N 22°37' E 120°17'0 0.0
2017-Sep-20 21:30N 22°37' E 120°17'0 0.0
2017-Sep-20 21:00N 22°37' E 120°17'0 0.0
2017-Sep-20 20:30N 22°37' E 120°17'0 0.0
2017-Sep-20 20:00N 22°37' E 120°17'0 0.0
2017-Sep-20 19:30N 22°37' E 120°17'0 0.0
2017-Sep-20 19:00N 22°37' E 120°17'0 0.0
2017-Sep-20 18:30N 22°37' E 120°17'0 0.0
2017-Sep-20 18:00N 22°37' E 120°17'0 0.0
2017-Sep-20 17:30N 22°37' E 120°17'0 0.0
2017-Sep-20 17:00N 22°37' E 120°17'0 0.0
2017-Sep-20 16:29N 22°37' E 120°17'0 0.0
2017-Sep-20 16:00N 22°37' E 120°17'0 0.0
2017-Sep-20 15:30N 22°37' E 120°17'0 0.0
2017-Sep-20 14:59N 22°37' E 120°17'0 0.0
2017-Sep-20 13:57N 22°37' E 120°17'0 0.0
2017-Sep-20 13:30N 22°37' E 120°17'0 0.0
2017-Sep-20 13:00N 22°37' E 120°17'0 0.0
2017-Sep-20 12:26N 22°37' E 120°17'0 0.0
2017-Sep-20 12:00N 22°37' E 120°17'0 0.0
2017-Sep-20 11:30N 22°37' E 120°17'0 0.0
2017-Sep-20 11:00N 22°37' E 120°17'0 0.0
2017-Sep-20 10:30N 22°37' E 120°17'0 0.0
2017-Sep-20 10:00N 22°37' E 120°17'0 0.0
2017-Sep-20 09:30N 22°37' E 120°17'0 0.0
2017-Sep-20 09:00N 22°37' E 120°17'0 0.0
2017-Sep-20 08:30N 22°37' E 120°17'0 0.0
2017-Sep-20 08:00N 22°37' E 120°17'0 0.0
2017-Sep-20 07:30N 22°37' E 120°17'0 0.0
2017-Sep-20 07:00N 22°37' E 120°17'0 0.0
2017-Sep-20 06:30N 22°37' E 120°17'0 0.0
2017-Sep-20 06:00N 22°37' E 120°17'0 0.0
2017-Sep-20 05:30N 22°37' E 120°17'0 0.0
2017-Sep-20 04:57N 22°37' E 120°17'0 0.0
2017-Sep-20 04:28N 22°37' E 120°17'0 0.0
2017-Sep-20 04:00N 22°37' E 120°17'2 4.2
2017-Sep-20 03:30N 22°37' E 120°15'5 9.6
2017-Sep-20 03:00N 22°39' E 120°10'510.8
2017-Sep-20 02:30N 22°44' E 120°07'74 9.5
2017-Sep-19 18:44N 23°46' E 119°24'311.4
2017-Sep-19 18:28N 23°49' E 119°25'511.4
2017-Sep-19 18:00N 23°54' E 119°27'4 8.1
2017-Sep-19 17:28N 23°58' E 119°29'3 6.3
2017-Sep-19 17:00N 24°01' E 119°29'2 4.8
2017-Sep-19 16:30N 23°59' E 119°28'2 3.4
2017-Sep-19 16:00N 23°57' E 119°28'3 5.6
2017-Sep-19 15:27N 24°00' E 119°28'1 2.1
2017-Sep-19 15:01N 23°59' E 119°28'1 1.2
2017-Sep-19 14:30N 23°59' E 119°28'2 4.2
2017-Sep-19 14:01N 24°01' E 119°27'1 1.2
2017-Sep-19 13:30N 24°01' E 119°27'2 3.8
2017-Sep-19 13:00N 23°59' E 119°26'2 4.2
2017-Sep-19 12:30N 23°57' E 119°25'2 4.4
2017-Sep-19 12:00N 23°59' E 119°24'3 5.7
2017-Sep-19 11:30N 24°02' E 119°23'0 0.2
2017-Sep-19 11:00N 24°02' E 119°24'2 3.4
2017-Sep-19 10:30N 24°00' E 119°24'3 5.7
2017-Sep-19 09:57N 24°03' E 119°24'3 6.2
2017-Sep-19 09:30N 24°00' E 119°24'1 1.1
2017-Sep-19 09:00N 24°00' E 119°24'3 6.1
2017-Sep-19 08:30N 24°03' E 119°24'2 4.1
2017-Sep-19 08:00N 24°01' E 119°25'3 5.2
2017-Sep-19 07:31N 23°59' E 119°25'3 5.3
2017-Sep-19 07:00N 24°01' E 119°25'1 1.8
2017-Sep-19 06:30N 24°02' E 119°25'1 1.2
2017-Sep-19 05:53N 24°03' E 119°25'2 5.1
2017-Sep-19 05:29N 24°01' E 119°26'2 3.3
2017-Sep-19 05:00N 23°59' E 119°26'3 5.3
2017-Sep-19 04:25N 24°03' E 119°26'2 3.9
2017-Sep-19 03:49N 24°00' E 119°26'2 5.1
2017-Sep-19 03:27N 23°58' E 119°26'2 4.6
2017-Sep-19 02:58N 24°01' E 119°26'2 5.1
2017-Sep-19 02:30N 24°03' E 119°25'3 3.7
2017-Sep-19 01:49N 24°05' E 119°26'3 2.2
2017-Sep-19 00:31N 24°08' E 119°26'2 3.8
2017-Sep-19 00:02N 24°06' E 119°27'2 0.4
2017-Sep-18 18:02N 24°06' E 119°29'0 4.2
2017-Sep-18 17:55N 24°06' E 119°29'2 3.0
2017-Sep-18 17:12N 24°04' E 119°27'1 4.2
2017-Sep-18 16:51N 24°04' E 119°25'2 4.1
2017-Sep-18 16:21N 24°04' E 119°23'1 3.8
2017-Sep-18 16:00N 24°03' E 119°23'2 3.7
2017-Sep-18 15:27N 24°03' E 119°25'2 4.3
2017-Sep-18 14:59N 24°03' E 119°27'2 3.2
2017-Sep-18 14:30N 24°02' E 119°29'6 3.5
2017-Sep-18 12:52N 23°60' E 119°23'1 3.5
2017-Sep-18 12:31N 23°59' E 119°24'2 4.6
2017-Sep-18 12:00N 23°59' E 119°27'2 4.0
2017-Sep-18 11:29N 23°59' E 119°29'2 3.5
2017-Sep-18 10:59N 23°57' E 119°28'2 4.6
2017-Sep-18 10:29N 23°57' E 119°25'2 3.7
2017-Sep-18 10:00N 23°57' E 119°23'0 1.0
2017-Sep-18 09:31N 23°57' E 119°23'0 0.4
2017-Sep-18 09:00N 23°56' E 119°24'2 4.4
2017-Sep-18 08:31N 23°59' E 119°23'0 0.3
2017-Sep-18 08:00N 23°59' E 119°24'2 4.2
2017-Sep-18 07:26N 23°56' E 119°24'1 1.2
2017-Sep-18 07:01N 23°57' E 119°24'2 3.6
2017-Sep-18 06:30N 23°59' E 119°24'3 5.5
2017-Sep-18 06:01N 24°01' E 119°23'0 0.2
2017-Sep-18 05:30N 24°01' E 119°24'3 5.7
2017-Sep-18 05:01N 23°59' E 119°24'8 0.2
2017-Sep-16 15:06N 24°06' E 119°25'1 5.8
2017-Sep-16 15:00N 24°07' E 119°25'3 5.8
2017-Sep-16 14:30N 24°10' E 119°25'3 5.5
2017-Sep-16 13:57N 24°07' E 119°25'2 5.6
2017-Sep-16 13:30N 24°04' E 119°25'3 5.7
2017-Sep-16 13:00N 24°01' E 119°25'3 5.8
2017-Sep-16 12:30N 23°59' E 119°26'2 4.5
2017-Sep-16 12:00N 23°56' E 119°26'1 2.6
2017-Sep-16 11:28N 23°58' E 119°26'3 5.6
2017-Sep-16 11:00N 24°00' E 119°26'4 5.8
2017-Sep-16 10:24N 24°04' E 119°25'2 5.8
2017-Sep-16 10:00N 24°06' E 119°25'3 5.6
2017-Sep-16 09:30N 24°09' E 119°25'1 1.2
2017-Sep-16 08:50N 24°08' E 119°25'2 5.8
2017-Sep-16 08:30N 24°06' E 119°25'3 5.8
2017-Sep-16 07:59N 24°03' E 119°26'3 5.8
2017-Sep-16 07:30N 24°01' E 119°26'9 2.3
2017-Sep-16 03:52N 24°09' E 119°25'  

Dump ship's entire track history